createdAt,value
2022-11-15T00:01:17.998Z,37.97
2022-11-15T00:04:05.694Z,35.22
2022-11-15T00:06:51.936Z,35.65
2022-11-15T00:09:42.168Z,38.53
2022-11-15T00:12:36.348Z,35.33
2022-11-15T00:15:23.228Z,33.00
2022-11-15T00:18:16.657Z,37.03
2022-11-15T00:21:10.675Z,36.78
2022-11-15T00:23:57.242Z,41.35
2022-11-15T00:26:43.635Z,37.33
2022-11-15T00:29:30.305Z,35.47
2022-11-15T00:32:16.635Z,41.20
2022-11-15T00:35:02.865Z,38.30
2022-11-15T00:37:50.077Z,38.53
2022-11-15T00:40:36.496Z,43.13
2022-11-15T00:43:22.735Z,43.75
2022-11-15T00:46:10.649Z,43.63
2022-11-15T00:48:57.260Z,44.13
2022-11-15T00:51:43.387Z,42.83
2022-11-15T00:54:29.930Z,42.00
2022-11-15T00:57:17.975Z,44.33
2022-11-15T01:00:05.205Z,39.63
2022-11-15T01:02:53.592Z,46.10
2022-11-15T01:05:40.263Z,42.20
2022-11-15T01:08:26.525Z,44.30
2022-11-15T01:11:13.865Z,41.88
2022-11-15T01:13:59.920Z,34.88
2022-11-15T01:16:46.149Z,37.75
2022-11-15T01:19:33.465Z,40.80
2022-11-15T01:22:21.512Z,35.25
2022-11-15T01:25:07.713Z,34.40
2022-11-15T01:27:54.013Z,34.55
2022-11-15T01:30:40.693Z,38.35
2022-11-15T01:33:27.587Z,37.40
2022-11-15T01:36:19.835Z,37.67
2022-11-15T01:39:06.226Z,38.10
2022-11-15T01:41:52.645Z,40.95
2022-11-15T01:44:47.712Z,35.53
2022-11-15T01:47:41.695Z,40.13
2022-11-15T01:50:33.214Z,36.50
2022-11-15T01:53:24.589Z,34.42
2022-11-15T01:56:15.421Z,34.83
2022-11-15T01:59:05.154Z,35.40
2022-11-15T02:01:53.243Z,29.02
2022-11-15T02:04:46.538Z,33.67
2022-11-15T02:07:37.073Z,43.13
2022-11-15T02:10:25.657Z,39.38
2022-11-15T02:13:12.015Z,38.88
2022-11-15T02:16:21.584Z,41.95
2022-11-15T02:19:32.714Z,48.28
2022-11-15T02:22:44.142Z,49.47
2022-11-15T02:25:48.806Z,45.35
2022-11-15T02:28:49.750Z,45.45
2022-11-15T02:32:01.505Z,46.08
2022-11-15T02:35:12.888Z,36.97
2022-11-15T02:38:41.072Z,44.45
2022-11-15T02:41:47.923Z,35.72
2022-11-15T02:44:41.663Z,40.58
2022-11-15T02:47:31.297Z,38.83
2022-11-15T02:53:05.593Z,45.92
2022-11-15T02:55:53.124Z,44.22
2022-11-15T02:59:02.108Z,50.50
2022-11-15T03:02:23.861Z,43.42
2022-11-15T03:05:31.575Z,46.65
2022-11-15T03:08:30.317Z,40.27
2022-11-15T03:11:19.977Z,41.38
2022-11-15T03:17:11.637Z,42.08
2022-11-15T03:20:01.673Z,42.92
2022-11-15T03:22:50.529Z,42.83
2022-11-15T03:25:46.113Z,37.30
2022-11-15T03:28:37.567Z,43.13
2022-11-15T03:31:49.767Z,39.15
2022-11-15T03:35:09.979Z,37.60
2022-11-15T03:38:27.024Z,35.95
2022-11-15T03:41:27.183Z,35.70
2022-11-15T03:44:22.719Z,35.53
2022-11-15T03:47:22.966Z,35.80
2022-11-15T03:50:14.492Z,31.45
2022-11-15T03:53:02.130Z,27.58
2022-11-15T03:55:48.445Z,28.05
2022-11-15T03:58:35.825Z,31.58
2022-11-15T04:01:22.225Z,24.35
2022-11-15T04:04:08.405Z,30.20
2022-11-15T04:06:54.561Z,25.92
2022-11-15T04:09:59.678Z,32.67
2022-11-15T04:12:50.191Z,28.58
2022-11-15T04:15:37.086Z,26.33
2022-11-15T04:18:23.893Z,19.92
2022-11-15T04:21:28.950Z,13.15
2022-11-15T04:24:19.280Z,19.80
2022-11-15T04:27:05.521Z,30.50
2022-11-15T04:29:52.150Z,35.28
2022-11-15T04:32:38.547Z,28.08
2022-11-15T04:35:25.563Z,34.20
2022-11-15T04:38:12.627Z,28.25
2022-11-15T04:40:59.173Z,16.13
2022-11-15T04:43:45.671Z,12.07
2022-11-15T04:46:32.328Z,14.30
2022-11-15T04:49:18.720Z,11.23
2022-11-15T04:52:05.494Z,10.95
2022-11-15T04:54:52.457Z,16.17
2022-11-15T04:57:39.275Z,8.95
2022-11-15T05:00:25.686Z,7.65
2022-11-15T05:03:31.167Z,11.30
2022-11-15T05:06:17.484Z,10.85
2022-11-15T05:09:04.777Z,9.38
2022-11-15T05:11:51.740Z,11.18
2022-11-15T05:14:38.803Z,12.27
2022-11-15T05:17:25.242Z,8.88
2022-11-15T05:20:12.681Z,10.35
2022-11-15T05:22:58.720Z,13.27
2022-11-15T05:25:45.103Z,10.93
2022-11-15T05:28:32.033Z,10.63
2022-11-15T05:31:18.664Z,10.50
2022-11-15T05:34:06.943Z,12.88
2022-11-15T05:36:53.804Z,10.88
2022-11-15T05:39:41.483Z,9.15
2022-11-15T05:42:28.994Z,12.02
2022-11-15T05:45:15.962Z,12.93
2022-11-15T05:48:08.696Z,13.20
2022-11-15T05:50:54.864Z,13.70
2022-11-15T05:53:41.615Z,12.38
2022-11-15T05:56:28.309Z,13.88
2022-11-15T05:59:15.098Z,9.85
2022-11-15T06:02:01.794Z,7.50
2022-11-15T06:04:48.100Z,10.90
2022-11-15T06:07:34.969Z,11.95
2022-11-15T06:10:21.222Z,10.63
2022-11-15T06:13:08.802Z,16.48
2022-11-15T06:15:57.944Z,13.27
2022-11-15T06:18:44.381Z,11.77
2022-11-15T06:21:30.505Z,18.55
2022-11-15T06:24:17.270Z,12.27
2022-11-15T06:27:03.426Z,13.20
2022-11-15T06:29:50.316Z,18.60
2022-11-15T06:32:36.765Z,12.82
2022-11-15T06:35:22.957Z,15.32
2022-11-15T06:38:11.908Z,18.08
2022-11-15T06:41:06.561Z,17.92
2022-11-15T06:43:53.025Z,17.98
2022-11-15T06:46:39.513Z,16.50
2022-11-15T06:49:25.897Z,15.55
2022-11-15T06:52:12.267Z,14.48
2022-11-15T06:54:58.852Z,13.95
2022-11-15T06:57:50.450Z,18.40
2022-11-15T07:00:36.640Z,18.13
2022-11-15T07:03:22.747Z,16.42
2022-11-15T07:06:10.154Z,22.23
2022-11-15T07:08:57.710Z,16.77
2022-11-15T07:11:43.943Z,18.77
2022-11-15T07:14:30.683Z,21.02
2022-11-15T07:17:17.148Z,16.83
2022-11-15T07:20:04.604Z,14.35
2022-11-15T07:22:50.748Z,19.83
2022-11-15T07:25:40.777Z,24.80
2022-11-15T07:28:28.835Z,15.52
2022-11-15T07:31:15.177Z,18.08
2022-11-15T07:34:03.217Z,14.93
2022-11-15T07:36:50.072Z,14.88
2022-11-15T07:39:37.764Z,18.38
2022-11-15T07:42:42.830Z,20.52
2022-11-15T07:45:28.929Z,16.65
2022-11-15T07:48:22.587Z,31.38
2022-11-15T07:51:31.315Z,19.23
2022-11-15T07:54:27.857Z,20.75
2022-11-15T07:57:14.604Z,34.38
2022-11-15T08:00:01.202Z,18.08
2022-11-15T08:02:47.559Z,19.65
2022-11-15T08:05:36.074Z,17.48
2022-11-15T08:08:22.283Z,19.98
2022-11-15T08:11:09.713Z,17.98
2022-11-15T08:13:56.153Z,17.35
2022-11-15T08:16:42.983Z,12.75
2022-11-15T08:19:30.189Z,10.38
2022-11-15T08:22:18.739Z,14.00
2022-11-15T08:25:06.577Z,16.02
2022-11-15T08:27:54.378Z,13.02
2022-11-15T08:30:43.700Z,13.52
2022-11-15T08:33:30.818Z,15.13
2022-11-15T08:36:18.398Z,13.80
2022-11-15T08:39:04.653Z,15.73
2022-11-15T08:41:51.487Z,11.75
2022-11-15T08:44:37.740Z,11.82
2022-11-15T08:47:24.584Z,13.50
2022-11-15T08:50:10.960Z,15.13
2022-11-15T08:52:57.368Z,10.10
2022-11-15T08:55:43.938Z,10.77
2022-11-15T08:58:30.606Z,13.57
2022-11-15T09:01:19.948Z,11.15
2022-11-15T09:04:06.346Z,10.13
2022-11-15T09:06:53.349Z,8.80
2022-11-15T09:09:39.587Z,8.52
2022-11-15T09:12:26.727Z,10.98
2022-11-15T09:15:13.237Z,11.18
2022-11-15T09:18:00.468Z,10.00
2022-11-15T09:20:46.805Z,11.90
2022-11-15T09:23:33.590Z,12.73
2022-11-15T09:26:20.455Z,10.77
2022-11-15T09:29:06.527Z,12.75
2022-11-15T09:31:55.928Z,11.52
2022-11-15T09:34:46.575Z,11.35
2022-11-15T09:37:34.037Z,14.13
2022-11-15T09:40:21.569Z,11.15
2022-11-15T09:43:30.011Z,12.35
2022-11-15T09:46:50.373Z,12.00
2022-11-15T09:49:44.292Z,9.02
2022-11-15T09:52:24.500Z,11.43
2022-11-15T09:54:55.622Z,10.35
2022-11-15T09:57:23.807Z,8.60
2022-11-15T10:00:46.927Z,8.65
2022-11-15T10:03:26.132Z,6.47
2022-11-15T10:05:58.673Z,6.20
2022-11-15T10:08:56.309Z,5.63
2022-11-15T10:11:42.480Z,6.25
2022-11-15T10:14:15.502Z,7.13
2022-11-15T10:16:52.699Z,8.60
2022-11-15T10:19:38.859Z,7.88
2022-11-15T10:22:13.575Z,6.60
2022-11-15T10:24:45.277Z,10.40
2022-11-15T10:27:18.125Z,9.63
2022-11-15T10:29:50.519Z,7.13
2022-11-15T10:32:21.751Z,6.65
2022-11-15T10:34:51.485Z,6.13
2022-11-15T10:37:30.654Z,6.25
2022-11-15T10:40:06.059Z,9.25
2022-11-15T10:42:34.978Z,7.75
2022-11-15T10:45:24.542Z,7.95
2022-11-15T10:47:52.333Z,10.50
2022-11-15T10:50:33.671Z,10.10
2022-11-15T10:53:03.945Z,9.07
2022-11-15T10:55:35.225Z,9.40
2022-11-15T10:58:21.280Z,9.05
2022-11-15T11:00:50.383Z,10.50
2022-11-15T11:04:04.123Z,8.52
2022-11-15T11:06:52.679Z,10.65
2022-11-15T11:09:28.374Z,7.95
2022-11-15T11:11:56.447Z,8.27
2022-11-15T11:14:33.807Z,12.85
2022-11-15T11:17:34.814Z,9.80
2022-11-15T11:20:37.409Z,7.72
2022-11-15T11:23:20.706Z,9.45
2022-11-15T11:26:13.275Z,8.45
2022-11-15T11:28:51.890Z,9.80
2022-11-15T11:31:49.187Z,5.97
2022-11-15T11:34:18.857Z,7.13
2022-11-15T11:37:12.476Z,8.10
2022-11-15T11:40:14.193Z,6.60
2022-11-15T11:43:10.595Z,8.95
2022-11-15T11:45:53.326Z,6.13
2022-11-15T11:48:45.884Z,6.00
2022-11-15T11:51:21.273Z,5.65
2022-11-15T11:53:57.550Z,13.60
2022-11-15T11:56:37.912Z,5.70
2022-11-15T11:59:37.624Z,5.18
2022-11-15T12:02:21.819Z,11.23
2022-11-15T12:04:54.399Z,6.93
2022-11-15T12:07:29.928Z,7.43
2022-11-15T12:10:15.411Z,9.10
2022-11-15T12:13:25.511Z,8.52
2022-11-15T12:16:25.841Z,6.88
2022-11-15T12:18:55.799Z,7.13
2022-11-15T12:21:28.769Z,9.32
2022-11-15T12:24:05.345Z,6.00
2022-11-15T12:26:40.565Z,7.82
2022-11-15T12:32:38.955Z,6.70
2022-11-15T12:35:41.233Z,7.00
2022-11-15T12:38:13.708Z,5.88
2022-11-15T12:41:18.412Z,7.57
2022-11-15T12:43:47.963Z,10.57
2022-11-15T12:46:31.035Z,9.73
2022-11-15T12:49:01.655Z,9.40
2022-11-15T12:51:44.471Z,19.75
2022-11-15T12:54:23.929Z,9.15
2022-11-15T12:57:09.457Z,10.98
2022-11-15T13:00:05.743Z,10.45
2022-11-15T13:02:47.550Z,8.73
2022-11-15T13:05:21.187Z,11.50
2022-11-15T13:07:49.069Z,10.43
2022-11-15T13:10:16.739Z,8.73
2022-11-15T13:12:45.598Z,19.13
2022-11-15T13:15:13.220Z,8.52
2022-11-15T13:17:45.157Z,12.27
2022-11-15T13:20:15.440Z,9.27
2022-11-15T13:23:04.923Z,11.13
2022-11-15T13:25:38.677Z,21.70
2022-11-15T13:28:15.038Z,16.52
2022-11-15T13:30:56.250Z,14.07
2022-11-15T13:33:35.709Z,7.53
2022-11-15T13:36:08.553Z,11.75
2022-11-15T13:38:39.646Z,10.10
2022-11-15T13:41:25.509Z,8.52
2022-11-15T13:43:55.149Z,9.30
2022-11-15T13:49:14.073Z,9.20
2022-11-15T13:51:51.503Z,9.02
2022-11-15T13:54:29.349Z,8.45
2022-11-15T13:57:04.046Z,8.80
2022-11-15T13:59:34.501Z,11.02
2022-11-15T14:02:13.723Z,7.53
2022-11-15T14:04:52.702Z,16.25
2022-11-15T14:07:24.264Z,10.07
2022-11-15T14:09:52.674Z,8.75
2022-11-15T14:12:34.189Z,10.35
2022-11-15T14:15:29.375Z,10.43
2022-11-15T14:17:57.619Z,13.75
2022-11-15T14:20:39.453Z,9.13
2022-11-15T14:23:25.927Z,10.13
2022-11-15T14:25:55.673Z,12.05
2022-11-15T14:28:24.140Z,14.93
2022-11-15T14:30:57.369Z,15.23
2022-11-15T14:33:36.599Z,10.90
2022-11-15T14:36:18.663Z,15.82
2022-11-15T14:38:47.436Z,9.40
2022-11-15T14:41:27.519Z,10.15
2022-11-15T14:43:55.596Z,12.40
2022-11-15T14:46:23.155Z,13.98
2022-11-15T14:48:51.256Z,12.82
2022-11-15T14:51:20.009Z,8.95
2022-11-15T14:53:49.301Z,13.63
2022-11-15T14:56:17.787Z,10.32
2022-11-15T14:58:45.883Z,16.02
2022-11-15T15:01:34.751Z,11.13
2022-11-15T15:04:02.643Z,12.32
2022-11-15T15:06:31.775Z,13.73
2022-11-15T15:08:59.729Z,12.65
2022-11-15T15:11:29.902Z,13.50
2022-11-15T15:14:01.442Z,10.85
2022-11-15T15:16:30.720Z,12.45
2022-11-15T15:18:58.451Z,12.38
2022-11-15T15:21:32.335Z,12.07
2022-11-15T15:24:04.584Z,12.13
2022-11-15T15:26:37.381Z,9.90
2022-11-15T15:29:05.279Z,9.98
2022-11-15T15:31:34.161Z,9.63
2022-11-15T15:34:02.347Z,14.85
2022-11-15T15:36:31.369Z,15.90
2022-11-15T15:38:59.036Z,11.57
2022-11-15T15:41:28.522Z,11.25
2022-11-15T15:43:56.304Z,12.38
2022-11-15T15:46:23.816Z,10.57
2022-11-15T15:48:51.483Z,15.70
2022-11-15T15:51:20.698Z,11.85
2022-11-15T15:53:49.491Z,13.73
2022-11-15T15:56:17.130Z,12.50
2022-11-15T15:58:44.770Z,16.10
2022-11-15T16:01:12.385Z,18.08
2022-11-15T16:03:40.067Z,16.70
2022-11-15T16:06:35.279Z,18.60
2022-11-15T16:09:19.862Z,12.00
2022-11-15T16:11:48.434Z,16.67
2022-11-15T16:14:16.137Z,14.60
2022-11-15T16:19:13.583Z,9.55
2022-11-15T16:21:41.440Z,9.27
2022-11-15T16:25:13.791Z,9.60
2022-11-15T16:27:47.255Z,7.75
2022-11-15T16:30:18.075Z,9.52
2022-11-15T16:32:46.219Z,10.02
2022-11-15T16:35:15.984Z,8.65
2022-11-15T16:37:46.010Z,8.35
2022-11-15T16:40:25.347Z,7.60
2022-11-15T16:42:53.155Z,7.28
2022-11-15T16:45:20.819Z,6.80
2022-11-15T16:47:48.547Z,10.82
2022-11-15T16:50:25.704Z,6.68
2022-11-15T16:52:58.515Z,13.75
2022-11-15T16:55:28.749Z,8.00
2022-11-15T16:58:01.890Z,8.05
2022-11-15T17:00:29.891Z,8.63
2022-11-15T17:02:59.005Z,11.13
2022-11-15T17:05:27.930Z,8.45
2022-11-15T17:07:55.846Z,10.70
2022-11-15T17:10:26.702Z,9.75
2022-11-15T17:12:56.301Z,10.98
2022-11-15T17:15:24.837Z,9.45
2022-11-15T17:17:54.178Z,13.00
2022-11-15T17:20:24.410Z,10.93
2022-11-15T17:22:53.089Z,7.93
2022-11-15T17:25:21.042Z,11.35
2022-11-15T17:27:48.647Z,12.30
2022-11-15T17:30:16.886Z,8.00
2022-11-15T17:32:44.880Z,15.52
2022-11-15T17:35:15.680Z,9.38
2022-11-15T17:37:44.613Z,11.55
2022-11-15T17:40:12.629Z,17.08
2022-11-15T17:42:42.454Z,13.05
2022-11-15T17:45:11.480Z,14.15
2022-11-15T17:50:07.532Z,15.68
2022-11-15T17:52:38.650Z,14.02
2022-11-15T17:55:06.769Z,10.90
2022-11-15T17:57:34.927Z,13.90
2022-11-15T18:00:02.757Z,12.38
2022-11-15T18:02:31.760Z,14.25
2022-11-15T18:04:59.314Z,13.45
2022-11-15T18:07:26.903Z,14.38
2022-11-15T18:09:54.815Z,11.15
2022-11-15T18:12:22.401Z,21.45
2022-11-15T18:14:51.610Z,15.98
2022-11-15T18:17:20.805Z,14.85
2022-11-15T18:19:49.097Z,16.10
2022-11-15T18:22:18.568Z,16.13
2022-11-15T18:24:47.139Z,17.57
2022-11-15T18:27:15.502Z,14.87
2022-11-15T18:29:44.865Z,14.45
2022-11-15T18:32:18.781Z,12.93
2022-11-15T18:34:46.643Z,17.20
2022-11-15T18:37:15.308Z,14.63
2022-11-15T18:39:43.680Z,16.13
2022-11-15T18:42:11.280Z,19.50
2022-11-15T18:44:39.241Z,16.83
2022-11-15T18:47:06.890Z,23.13
2022-11-15T18:49:34.586Z,17.40
2022-11-15T18:52:02.230Z,13.35
2022-11-15T18:54:31.612Z,18.35
2022-11-15T18:56:59.961Z,12.27
2022-11-15T18:59:27.963Z,15.05
2022-11-15T19:01:57.003Z,15.18
2022-11-15T19:04:24.922Z,14.50
2022-11-15T19:06:53.707Z,16.77
2022-11-15T19:09:21.412Z,17.40
2022-11-15T19:11:51.623Z,16.15
2022-11-15T19:14:24.412Z,15.82
2022-11-15T19:16:52.931Z,18.10
2022-11-15T19:19:25.821Z,16.75
2022-11-15T19:21:54.873Z,14.73
2022-11-15T19:24:27.299Z,13.90
2022-11-15T19:26:55.162Z,17.30
2022-11-15T19:29:22.911Z,13.27
2022-11-15T19:31:50.660Z,14.23
2022-11-15T19:34:18.327Z,15.55
2022-11-15T19:36:46.809Z,15.75
2022-11-15T19:39:15.456Z,12.50
2022-11-15T19:41:47.365Z,19.23
2022-11-15T19:44:15.395Z,13.15
2022-11-15T19:46:44.359Z,11.70
2022-11-15T19:49:12.263Z,13.52
2022-11-15T19:51:42.634Z,12.82
2022-11-15T19:54:10.857Z,14.63
2022-11-15T19:56:39.952Z,14.53
2022-11-15T19:59:09.012Z,20.85
2022-11-15T20:01:38.993Z,17.23
2022-11-15T20:04:10.036Z,13.18
2022-11-15T20:06:41.763Z,11.93
2022-11-15T20:09:14.130Z,11.63
2022-11-15T20:11:42.149Z,12.68
2022-11-15T20:14:11.739Z,23.20
2022-11-15T20:16:39.663Z,13.40
2022-11-15T20:19:08.606Z,12.30
2022-11-15T20:21:36.330Z,11.25
2022-11-15T20:24:05.138Z,11.63
2022-11-15T20:26:33.030Z,13.83
2022-11-15T20:29:04.070Z,11.98
2022-11-15T20:31:32.390Z,10.93
2022-11-15T20:34:00.403Z,16.05
2022-11-15T20:36:28.491Z,15.07
2022-11-15T20:38:59.786Z,12.18
2022-11-15T20:41:28.112Z,13.07
2022-11-15T20:43:56.435Z,10.77
2022-11-15T20:46:24.299Z,12.85
2022-11-15T20:48:52.193Z,15.82
2022-11-15T20:51:20.560Z,13.93
2022-11-15T20:53:48.877Z,13.98
2022-11-15T20:56:20.255Z,12.85
2022-11-15T20:58:50.536Z,13.95
2022-11-15T21:01:57.342Z,15.40
2022-11-15T21:04:25.086Z,20.58
2022-11-15T21:06:53.003Z,17.05
2022-11-15T21:09:39.299Z,13.45
2022-11-15T21:12:11.504Z,14.85
2022-11-15T21:14:40.595Z,12.88
2022-11-15T21:17:10.576Z,14.70
2022-11-15T21:19:38.399Z,14.57
2022-11-15T21:22:07.122Z,17.02
2022-11-15T21:24:35.421Z,13.88
2022-11-15T21:27:03.000Z,12.95
2022-11-15T21:29:40.156Z,12.43
2022-11-15T21:32:09.836Z,13.68
2022-11-15T21:34:37.818Z,13.55
2022-11-15T21:37:05.377Z,17.50
2022-11-15T21:39:33.114Z,14.88
2022-11-15T21:42:00.675Z,12.80
2022-11-15T21:44:28.781Z,13.40
2022-11-15T21:46:56.337Z,13.55
2022-11-15T21:49:24.068Z,14.20
2022-11-15T21:51:51.611Z,15.38
2022-11-15T21:54:19.256Z,12.55
2022-11-15T21:56:46.854Z,14.07
2022-11-15T21:59:15.857Z,18.50
2022-11-15T22:02:01.964Z,12.82
2022-11-15T22:04:29.769Z,16.50
2022-11-15T22:06:57.859Z,16.45
2022-11-15T22:09:25.581Z,13.57
2022-11-15T22:11:53.291Z,14.25
2022-11-15T22:14:20.987Z,14.57
2022-11-15T22:16:48.567Z,14.25
2022-11-15T22:19:18.436Z,12.90
2022-11-15T22:21:49.011Z,13.82
2022-11-15T22:24:16.797Z,10.80
2022-11-15T22:26:44.628Z,14.07
2022-11-15T22:29:12.286Z,14.73
2022-11-15T22:31:39.973Z,15.18
2022-11-15T22:34:07.763Z,14.70
2022-11-15T22:36:52.217Z,11.90
2022-11-15T22:39:20.447Z,15.70
2022-11-15T22:41:48.079Z,12.40
2022-11-15T22:44:15.774Z,13.40
2022-11-15T22:46:43.518Z,15.20
2022-11-15T22:49:11.226Z,13.85
2022-11-15T22:51:40.611Z,13.98
2022-11-15T22:54:08.714Z,16.83
2022-11-15T22:56:37.125Z,13.10
2022-11-15T22:59:04.835Z,14.10
2022-11-15T23:01:32.696Z,12.55
2022-11-15T23:04:00.654Z,13.77
2022-11-15T23:06:29.073Z,13.20
2022-11-15T23:08:56.962Z,16.90
2022-11-15T23:11:44.180Z,11.23
2022-11-15T23:14:13.434Z,14.05
2022-11-15T23:16:41.175Z,12.60
2022-11-15T23:19:10.936Z,14.93
2022-11-15T23:22:02.076Z,12.93
2022-11-15T23:24:31.418Z,16.08
2022-11-15T23:27:01.674Z,15.05
2022-11-15T23:29:30.847Z,14.45
2022-11-15T23:32:17.289Z,12.93
2022-11-15T23:34:46.204Z,14.80
2022-11-15T23:37:15.715Z,16.58
2022-11-15T23:39:44.246Z,13.68
2022-11-15T23:42:20.092Z,11.57
2022-11-15T23:44:50.833Z,13.55
2022-11-15T23:47:19.652Z,14.43
2022-11-15T23:49:47.477Z,13.70
2022-11-15T23:52:16.256Z,13.18
2022-11-15T23:54:44.567Z,10.83
2022-11-15T23:57:12.625Z,13.63
2022-11-15T23:59:45.096Z,13.98
